Terminal Aerodrome Forecast
Issued by NWS

Current Version | Previous Version | Text Only | Print | Product List | Glossary On
Versions: 1 2 3 4 5 6 7 8 9 10 11 12
245
FTUS45 KTFX 221720
TAFCTB
TAF
KCTB 221720Z 2218/2318 10010KT P6SM FEW060
     FM230300 02006KT P6SM SCT060=

USA.gov is the U.S. government's official web portal to all federal, state and local government web resources and services.